Lincoln, New York
Current Conditions -  °F | °C
As of 4:54 PM on Saturday 25 Oct 2014 (Local Time) from KSYR Reporting Station
Light Rain Light Rain  
Wind Chill: 65°   Ceiling: 10000
Heat Index: 65°   Visibility: 10mi
Dew Point: 45°   Wind: 10mph
Humidity: 48%   Direction: 220°SW
Pressure: 29.52"   Gusts: 23mph
Location:  43.0414°N, 75.7453°W
Report Text: KSYR 252054Z 22009G20KT 10SM -RA SCT055 BKN100 BKN150 18/07 A2952 RMK AO2 RAB53 SLP995 P0000 60000 T01830072 58038
Loading
Personal Weather Stations






























Interactive Weather Map
Tropical Storm Tracking
New forecast layout! Learn more

10-Day Weather Forecast

Advertisements
Track Severe Weather on mobile